sensor_id;sensor_type;location;lat;lon;timestamp;P1;durP1;ratioP1;P2;durP2;ratioP2
15655;SDS011;7928;43.614;1.456;2024-03-02T00:01:29;12.70;;;9.33;;
15655;SDS011;7928;43.614;1.456;2024-03-02T00:03:57;12.77;;;9.77;;
15655;SDS011;7928;43.614;1.456;2024-03-02T00:06:24;12.33;;;8.97;;
15655;SDS011;7928;43.614;1.456;2024-03-02T00:08:52;10.47;;;9.00;;
15655;SDS011;7928;43.614;1.456;2024-03-02T00:11:24;13.07;;;8.67;;
15655;SDS011;7928;43.614;1.456;2024-03-02T00:13:52;13.90;;;8.63;;
15655;SDS011;7928;43.614;1.456;2024-03-02T00:16:20;11.53;;;8.40;;
15655;SDS011;7928;43.614;1.456;2024-03-02T00:18:47;10.10;;;8.20;;
15655;SDS011;7928;43.614;1.456;2024-03-02T00:21:14;11.50;;;8.23;;
15655;SDS011;7928;43.614;1.456;2024-03-02T00:23:45;10.60;;;7.83;;
15655;SDS011;7928;43.614;1.456;2024-03-02T00:26:13;9.90;;;7.93;;
15655;SDS011;7928;43.614;1.456;2024-03-02T00:28:42;11.50;;;8.10;;
15655;SDS011;7928;43.614;1.456;2024-03-02T00:31:11;11.20;;;9.23;;
15655;SDS011;7928;43.614;1.456;2024-03-02T00:33:40;9.93;;;7.83;;
15655;SDS011;7928;43.614;1.456;2024-03-02T00:36:08;10.10;;;8.33;;
15655;SDS011;7928;43.614;1.456;2024-03-02T00:38:42;11.10;;;9.00;;
15655;SDS011;7928;43.614;1.456;2024-03-02T00:41:15;13.33;;;8.13;;
15655;SDS011;7928;43.614;1.456;2024-03-02T00:43:50;12.10;;;8.10;;
15655;SDS011;7928;43.614;1.456;2024-03-02T00:46:23;11.73;;;8.83;;
15655;SDS011;7928;43.614;1.456;2024-03-02T00:48:52;12.23;;;8.60;;
15655;SDS011;7928;43.614;1.456;2024-03-02T00:51:20;14.30;;;8.73;;
15655;SDS011;7928;43.614;1.456;2024-03-02T00:53:48;9.20;;;7.77;;
15655;SDS011;7928;43.614;1.456;2024-03-02T00:56:17;13.23;;;6.80;;
15655;SDS011;7928;43.614;1.456;2024-03-02T00:58:44;7.23;;;6.27;;
15655;SDS011;7928;43.614;1.456;2024-03-02T01:01:11;8.37;;;5.07;;
15655;SDS011;7928;43.614;1.456;2024-03-02T01:03:38;9.10;;;5.80;;
15655;SDS011;7928;43.614;1.456;2024-03-02T01:06:06;8.30;;;5.87;;
15655;SDS011;7928;43.614;1.456;2024-03-02T01:08:33;9.67;;;6.23;;
15655;SDS011;7928;43.614;1.456;2024-03-02T01:11:01;10.20;;;6.17;;
15655;SDS011;7928;43.614;1.456;2024-03-02T01:13:29;7.50;;;5.53;;
15655;SDS011;7928;43.614;1.456;2024-03-02T01:15:57;7.37;;;5.60;;
15655;SDS011;7928;43.614;1.456;2024-03-02T01:18:24;9.43;;;6.20;;
15655;SDS011;7928;43.614;1.456;2024-03-02T01:20:51;5.07;;;4.57;;
15655;SDS011;7928;43.614;1.456;2024-03-02T01:23:21;7.90;;;5.17;;
15655;SDS011;7928;43.614;1.456;2024-03-02T01:25:48;6.30;;;4.80;;
15655;SDS011;7928;43.614;1.456;2024-03-02T01:28:15;8.47;;;5.17;;
15655;SDS011;7928;43.614;1.456;2024-03-02T01:30:44;9.17;;;5.07;;
15655;SDS011;7928;43.614;1.456;2024-03-02T01:33:11;7.10;;;5.60;;
15655;SDS011;7928;43.614;1.456;2024-03-02T01:35:38;7.53;;;5.20;;
15655;SDS011;7928;43.614;1.456;2024-03-02T01:38:05;8.97;;;5.47;;
15655;SDS011;7928;43.614;1.456;2024-03-02T01:40:33;7.23;;;5.17;;
15655;SDS011;7928;43.614;1.456;2024-03-02T01:43:00;8.17;;;5.30;;
15655;SDS011;7928;43.614;1.456;2024-03-02T01:45:27;7.27;;;5.90;;
15655;SDS011;7928;43.614;1.456;2024-03-02T01:47:55;8.80;;;5.20;;
15655;SDS011;7928;43.614;1.456;2024-03-02T01:50:25;7.80;;;5.33;;
15655;SDS011;7928;43.614;1.456;2024-03-02T01:52:53;8.87;;;5.63;;
15655;SDS011;7928;43.614;1.456;2024-03-02T01:55:21;9.37;;;5.50;;
15655;SDS011;7928;43.614;1.456;2024-03-02T01:57:48;7.60;;;5.20;;
15655;SDS011;7928;43.614;1.456;2024-03-02T02:00:16;8.73;;;5.53;;
15655;SDS011;7928;43.614;1.456;2024-03-02T02:02:43;7.43;;;5.27;;
15655;SDS011;7928;43.614;1.456;2024-03-02T02:05:11;9.93;;;5.60;;
15655;SDS011;7928;43.614;1.456;2024-03-02T02:07:39;6.40;;;4.90;;
15655;SDS011;7928;43.614;1.456;2024-03-02T02:10:07;7.07;;;4.63;;
15655;SDS011;7928;43.614;1.456;2024-03-02T02:12:35;5.20;;;3.23;;
15655;SDS011;7928;43.614;1.456;2024-03-02T02:15:02;4.33;;;3.07;;
15655;SDS011;7928;43.614;1.456;2024-03-02T02:17:30;4.53;;;3.33;;
15655;SDS011;7928;43.614;1.456;2024-03-02T02:19:57;5.13;;;3.70;;
15655;SDS011;7928;43.614;1.456;2024-03-02T02:22:26;7.23;;;3.57;;
15655;SDS011;7928;43.614;1.456;2024-03-02T02:24:53;7.70;;;4.27;;
15655;SDS011;7928;43.614;1.456;2024-03-02T02:27:20;7.60;;;3.33;;
15655;SDS011;7928;43.614;1.456;2024-03-02T02:29:47;11.20;;;3.67;;
15655;SDS011;7928;43.614;1.456;2024-03-02T02:32:14;8.20;;;4.07;;
15655;SDS011;7928;43.614;1.456;2024-03-02T02:34:41;5.77;;;3.60;;
15655;SDS011;7928;43.614;1.456;2024-03-02T02:37:08;5.70;;;3.47;;
15655;SDS011;7928;43.614;1.456;2024-03-02T02:39:36;8.00;;;3.83;;
15655;SDS011;7928;43.614;1.456;2024-03-02T02:42:03;5.33;;;3.33;;
15655;SDS011;7928;43.614;1.456;2024-03-02T02:44:30;5.63;;;3.23;;
15655;SDS011;7928;43.614;1.456;2024-03-02T02:46:57;7.30;;;3.50;;
15655;SDS011;7928;43.614;1.456;2024-03-02T02:49:24;5.67;;;3.77;;
15655;SDS011;7928;43.614;1.456;2024-03-02T02:51:51;6.67;;;3.93;;
15655;SDS011;7928;43.614;1.456;2024-03-02T02:54:18;6.23;;;3.90;;
15655;SDS011;7928;43.614;1.456;2024-03-02T02:56:47;6.57;;;4.50;;
15655;SDS011;7928;43.614;1.456;2024-03-02T02:59:14;7.17;;;3.77;;
15655;SDS011;7928;43.614;1.456;2024-03-02T03:01:41;7.97;;;4.63;;
15655;SDS011;7928;43.614;1.456;2024-03-02T03:04:09;9.30;;;4.90;;
15655;SDS011;7928;43.614;1.456;2024-03-02T03:06:36;9.37;;;5.77;;
15655;SDS011;7928;43.614;1.456;2024-03-02T03:09:03;7.87;;;5.57;;
15655;SDS011;7928;43.614;1.456;2024-03-02T03:11:30;9.57;;;5.50;;
15655;SDS011;7928;43.614;1.456;2024-03-02T03:13:58;8.47;;;5.27;;
15655;SDS011;7928;43.614;1.456;2024-03-02T03:16:26;8.80;;;5.90;;
15655;SDS011;7928;43.614;1.456;2024-03-02T03:18:53;9.50;;;5.70;;
15655;SDS011;7928;43.614;1.456;2024-03-02T03:21:20;7.67;;;5.40;;
15655;SDS011;7928;43.614;1.456;2024-03-02T03:23:47;8.00;;;4.87;;
15655;SDS011;7928;43.614;1.456;2024-03-02T03:26:14;6.90;;;5.37;;
15655;SDS011;7928;43.614;1.456;2024-03-02T03:28:41;7.07;;;4.90;;
15655;SDS011;7928;43.614;1.456;2024-03-02T03:31:10;9.20;;;5.20;;
15655;SDS011;7928;43.614;1.456;2024-03-02T03:33:37;6.43;;;5.20;;
15655;SDS011;7928;43.614;1.456;2024-03-02T03:36:04;9.43;;;5.10;;
15655;SDS011;7928;43.614;1.456;2024-03-02T03:38:31;8.27;;;5.17;;
15655;SDS011;7928;43.614;1.456;2024-03-02T03:40:58;8.20;;;5.30;;
15655;SDS011;7928;43.614;1.456;2024-03-02T03:43:25;9.37;;;5.33;;
15655;SDS011;7928;43.614;1.456;2024-03-02T03:45:52;6.63;;;5.20;;
15655;SDS011;7928;43.614;1.456;2024-03-02T03:48:21;10.07;;;5.87;;
15655;SDS011;7928;43.614;1.456;2024-03-02T03:50:48;9.70;;;5.50;;
15655;SDS011;7928;43.614;1.456;2024-03-02T03:53:15;8.53;;;5.00;;
15655;SDS011;7928;43.614;1.456;2024-03-02T03:55:41;7.80;;;5.70;;
15655;SDS011;7928;43.614;1.456;2024-03-02T03:58:11;6.40;;;4.97;;
15655;SDS011;7928;43.614;1.456;2024-03-02T04:00:39;6.70;;;4.27;;
15655;SDS011;7928;43.614;1.456;2024-03-02T04:03:06;9.33;;;4.63;;
15655;SDS011;7928;43.614;1.456;2024-03-02T04:05:34;9.10;;;4.80;;
15655;SDS011;7928;43.614;1.456;2024-03-02T04:08:01;6.83;;;4.20;;
15655;SDS011;7928;43.614;1.456;2024-03-02T04:10:28;5.80;;;3.97;;
15655;SDS011;7928;43.614;1.456;2024-03-02T04:12:56;6.40;;;4.00;;
15655;SDS011;7928;43.614;1.456;2024-03-02T04:15:23;7.03;;;4.40;;
15655;SDS011;7928;43.614;1.456;2024-03-02T04:17:50;5.20;;;3.50;;
15655;SDS011;7928;43.614;1.456;2024-03-02T04:20:17;7.00;;;3.77;;
15655;SDS011;7928;43.614;1.456;2024-03-02T04:22:45;6.20;;;3.60;;
15655;SDS011;7928;43.614;1.456;2024-03-02T04:25:12;6.03;;;3.70;;
15655;SDS011;7928;43.614;1.456;2024-03-02T04:27:39;6.20;;;3.43;;
15655;SDS011;7928;43.614;1.456;2024-03-02T04:30:07;3.47;;;3.07;;
15655;SDS011;7928;43.614;1.456;2024-03-02T04:32:34;5.23;;;3.80;;
15655;SDS011;7928;43.614;1.456;2024-03-02T04:35:02;7.20;;;3.83;;
15655;SDS011;7928;43.614;1.456;2024-03-02T04:37:29;6.10;;;3.30;;
15655;SDS011;7928;43.614;1.456;2024-03-02T04:39:58;5.10;;;3.47;;
15655;SDS011;7928;43.614;1.456;2024-03-02T04:42:25;7.37;;;3.73;;
15655;SDS011;7928;43.614;1.456;2024-03-02T04:44:52;5.60;;;3.37;;
15655;SDS011;7928;43.614;1.456;2024-03-02T04:47:19;4.80;;;3.00;;
15655;SDS011;7928;43.614;1.456;2024-03-02T04:49:46;6.93;;;3.73;;
15655;SDS011;7928;43.614;1.456;2024-03-02T04:52:13;5.50;;;3.30;;
15655;SDS011;7928;43.614;1.456;2024-03-02T04:54:40;3.23;;;2.63;;
15655;SDS011;7928;43.614;1.456;2024-03-02T04:57:22;3.47;;;2.53;;
15655;SDS011;7928;43.614;1.456;2024-03-02T04:59:49;5.33;;;2.93;;
15655;SDS011;7928;43.614;1.456;2024-03-02T05:02:16;4.83;;;3.13;;
15655;SDS011;7928;43.614;1.456;2024-03-02T05:04:43;4.60;;;2.97;;
15655;SDS011;7928;43.614;1.456;2024-03-02T05:07:10;5.30;;;3.33;;
15655;SDS011;7928;43.614;1.456;2024-03-02T05:09:37;8.07;;;3.43;;
15655;SDS011;7928;43.614;1.456;2024-03-02T05:12:04;5.40;;;3.40;;
15655;SDS011;7928;43.614;1.456;2024-03-02T05:14:49;6.77;;;3.37;;
15655;SDS011;7928;43.614;1.456;2024-03-02T05:17:16;3.87;;;2.77;;
15655;SDS011;7928;43.614;1.456;2024-03-02T05:19:43;5.80;;;3.13;;
15655;SDS011;7928;43.614;1.456;2024-03-02T05:22:10;4.27;;;2.70;;
15655;SDS011;7928;43.614;1.456;2024-03-02T05:24:37;7.37;;;3.13;;
15655;SDS011;7928;43.614;1.456;2024-03-02T05:27:04;4.40;;;3.30;;
15655;SDS011;7928;43.614;1.456;2024-03-02T05:29:32;8.20;;;3.07;;
15655;SDS011;7928;43.614;1.456;2024-03-02T05:32:00;5.93;;;3.33;;
15655;SDS011;7928;43.614;1.456;2024-03-02T05:34:27;5.20;;;3.00;;
15655;SDS011;7928;43.614;1.456;2024-03-02T05:36:55;5.77;;;3.00;;
15655;SDS011;7928;43.614;1.456;2024-03-02T05:39:24;5.47;;;2.87;;
15655;SDS011;7928;43.614;1.456;2024-03-02T05:41:50;6.10;;;3.00;;
15655;SDS011;7928;43.614;1.456;2024-03-02T05:44:17;3.93;;;2.53;;
15655;SDS011;7928;43.614;1.456;2024-03-02T05:46:44;5.30;;;2.40;;
15655;SDS011;7928;43.614;1.456;2024-03-02T05:49:13;4.80;;;3.07;;
15655;SDS011;7928;43.614;1.456;2024-03-02T05:51:40;5.80;;;2.57;;
15655;SDS011;7928;43.614;1.456;2024-03-02T05:54:07;5.33;;;2.90;;
15655;SDS011;7928;43.614;1.456;2024-03-02T05:56:34;3.73;;;2.70;;
15655;SDS011;7928;43.614;1.456;2024-03-02T05:59:02;4.13;;;2.30;;
15655;SDS011;7928;43.614;1.456;2024-03-02T06:01:37;3.80;;;2.60;;
15655;SDS011;7928;43.614;1.456;2024-03-02T06:04:04;4.47;;;2.57;;
15655;SDS011;7928;43.614;1.456;2024-03-02T06:06:33;4.17;;;2.73;;
15655;SDS011;7928;43.614;1.456;2024-03-02T06:09:00;5.30;;;3.17;;
15655;SDS011;7928;43.614;1.456;2024-03-02T06:11:30;3.00;;;1.93;;
15655;SDS011;7928;43.614;1.456;2024-03-02T06:13:57;5.73;;;2.27;;
15655;SDS011;7928;43.614;1.456;2024-03-02T06:16:24;4.47;;;2.40;;
15655;SDS011;7928;43.614;1.456;2024-03-02T06:18:51;4.13;;;2.50;;
15655;SDS011;7928;43.614;1.456;2024-03-02T06:21:19;2.87;;;2.10;;
15655;SDS011;7928;43.614;1.456;2024-03-02T06:23:47;3.80;;;2.17;;
15655;SDS011;7928;43.614;1.456;2024-03-02T06:26:14;5.40;;;2.17;;
15655;SDS011;7928;43.614;1.456;2024-03-02T06:28:41;4.80;;;2.67;;
15655;SDS011;7928;43.614;1.456;2024-03-02T06:31:08;5.17;;;2.60;;
15655;SDS011;7928;43.614;1.456;2024-03-02T06:33:35;4.77;;;2.40;;
15655;SDS011;7928;43.614;1.456;2024-03-02T06:36:03;5.50;;;2.80;;
15655;SDS011;7928;43.614;1.456;2024-03-02T06:38:33;5.00;;;1.93;;
15655;SDS011;7928;43.614;1.456;2024-03-02T06:41:02;4.03;;;2.70;;
15655;SDS011;7928;43.614;1.456;2024-03-02T06:43:29;5.63;;;2.63;;
15655;SDS011;7928;43.614;1.456;2024-03-02T06:45:56;3.40;;;2.23;;
15655;SDS011;7928;43.614;1.456;2024-03-02T06:48:23;6.27;;;3.20;;
15655;SDS011;7928;43.614;1.456;2024-03-02T06:50:50;7.83;;;3.27;;
15655;SDS011;7928;43.614;1.456;2024-03-02T06:53:17;3.93;;;2.93;;
15655;SDS011;7928;43.614;1.456;2024-03-02T06:55:45;4.67;;;2.80;;
15655;SDS011;7928;43.614;1.456;2024-03-02T06:58:13;4.83;;;3.00;;
15655;SDS011;7928;43.614;1.456;2024-03-02T07:00:41;4.80;;;3.17;;
15655;SDS011;7928;43.614;1.456;2024-03-02T07:03:09;5.43;;;2.87;;
15655;SDS011;7928;43.614;1.456;2024-03-02T07:05:35;4.33;;;2.70;;
15655;SDS011;7928;43.614;1.456;2024-03-02T07:08:02;5.20;;;3.03;;
15655;SDS011;7928;43.614;1.456;2024-03-02T07:10:30;4.67;;;3.00;;
15655;SDS011;7928;43.614;1.456;2024-03-02T07:12:57;5.03;;;2.97;;
15655;SDS011;7928;43.614;1.456;2024-03-02T07:15:25;5.00;;;3.07;;
15655;SDS011;7928;43.614;1.456;2024-03-02T07:18:10;4.07;;;3.13;;
15655;SDS011;7928;43.614;1.456;2024-03-02T07:20:37;6.20;;;3.27;;
15655;SDS011;7928;43.614;1.456;2024-03-02T07:23:04;5.50;;;3.23;;
15655;SDS011;7928;43.614;1.456;2024-03-02T07:25:32;5.90;;;3.10;;
15655;SDS011;7928;43.614;1.456;2024-03-02T07:27:59;11.60;;;4.17;;
15655;SDS011;7928;43.614;1.456;2024-03-02T07:30:27;10.10;;;3.50;;
15655;SDS011;7928;43.614;1.456;2024-03-02T07:32:54;6.23;;;3.00;;
15655;SDS011;7928;43.614;1.456;2024-03-02T07:35:21;4.53;;;3.00;;
15655;SDS011;7928;43.614;1.456;2024-03-02T07:37:51;5.67;;;3.20;;
15655;SDS011;7928;43.614;1.456;2024-03-02T07:40:18;5.37;;;3.20;;
15655;SDS011;7928;43.614;1.456;2024-03-02T07:42:46;4.30;;;2.73;;
15655;SDS011;7928;43.614;1.456;2024-03-02T07:45:13;4.77;;;2.97;;
15655;SDS011;7928;43.614;1.456;2024-03-02T07:47:41;5.87;;;3.03;;
15655;SDS011;7928;43.614;1.456;2024-03-02T07:50:09;6.90;;;2.77;;
15655;SDS011;7928;43.614;1.456;2024-03-02T07:52:36;5.47;;;3.03;;
15655;SDS011;7928;43.614;1.456;2024-03-02T07:55:03;5.77;;;3.20;;
15655;SDS011;7928;43.614;1.456;2024-03-02T07:57:31;8.13;;;3.20;;
15655;SDS011;7928;43.614;1.456;2024-03-02T07:59:58;3.60;;;2.43;;
15655;SDS011;7928;43.614;1.456;2024-03-02T08:02:25;4.20;;;2.50;;
15655;SDS011;7928;43.614;1.456;2024-03-02T08:04:54;4.17;;;2.67;;
15655;SDS011;7928;43.614;1.456;2024-03-02T08:07:21;5.03;;;3.00;;
15655;SDS011;7928;43.614;1.456;2024-03-02T08:09:48;4.37;;;2.73;;
15655;SDS011;7928;43.614;1.456;2024-03-02T08:12:15;5.13;;;3.07;;
15655;SDS011;7928;43.614;1.456;2024-03-02T08:14:43;4.70;;;2.77;;
15655;SDS011;7928;43.614;1.456;2024-03-02T08:17:10;6.43;;;2.80;;
15655;SDS011;7928;43.614;1.456;2024-03-02T08:19:37;5.10;;;3.17;;
15655;SDS011;7928;43.614;1.456;2024-03-02T08:22:06;4.80;;;2.97;;
15655;SDS011;7928;43.614;1.456;2024-03-02T08:24:33;4.70;;;3.20;;
15655;SDS011;7928;43.614;1.456;2024-03-02T08:27:00;3.93;;;2.83;;
15655;SDS011;7928;43.614;1.456;2024-03-02T08:29:28;6.60;;;3.30;;
15655;SDS011;7928;43.614;1.456;2024-03-02T08:31:55;4.97;;;2.60;;
15655;SDS011;7928;43.614;1.456;2024-03-02T08:34:22;4.57;;;3.00;;
15655;SDS011;7928;43.614;1.456;2024-03-02T08:36:49;6.63;;;2.53;;
15655;SDS011;7928;43.614;1.456;2024-03-02T08:39:17;5.00;;;2.73;;
15655;SDS011;7928;43.614;1.456;2024-03-02T08:41:45;6.40;;;2.73;;
15655;SDS011;7928;43.614;1.456;2024-03-02T08:44:13;4.37;;;2.50;;
15655;SDS011;7928;43.614;1.456;2024-03-02T08:46:41;4.97;;;2.47;;
15655;SDS011;7928;43.614;1.456;2024-03-02T08:49:10;4.23;;;2.80;;
15655;SDS011;7928;43.614;1.456;2024-03-02T08:51:38;6.17;;;2.60;;
15655;SDS011;7928;43.614;1.456;2024-03-02T08:54:05;4.53;;;2.67;;
15655;SDS011;7928;43.614;1.456;2024-03-02T08:56:33;4.13;;;2.50;;
15655;SDS011;7928;43.614;1.456;2024-03-02T08:59:03;2.63;;;1.90;;
15655;SDS011;7928;43.614;1.456;2024-03-02T09:01:30;5.47;;;2.43;;
15655;SDS011;7928;43.614;1.456;2024-03-02T09:03:57;4.60;;;2.73;;
15655;SDS011;7928;43.614;1.456;2024-03-02T09:06:24;4.87;;;2.00;;
15655;SDS011;7928;43.614;1.456;2024-03-02T09:08:51;4.33;;;2.17;;
15655;SDS011;7928;43.614;1.456;2024-03-02T09:11:18;3.73;;;1.57;;
15655;SDS011;7928;43.614;1.456;2024-03-02T09:13:46;6.20;;;2.27;;
15655;SDS011;7928;43.614;1.456;2024-03-02T09:16:13;5.67;;;2.23;;
15655;SDS011;7928;43.614;1.456;2024-03-02T09:18:40;8.03;;;2.73;;
15655;SDS011;7928;43.614;1.456;2024-03-02T09:21:07;6.07;;;2.80;;
15655;SDS011;7928;43.614;1.456;2024-03-02T09:23:35;7.63;;;2.80;;
15655;SDS011;7928;43.614;1.456;2024-03-02T09:26:03;6.30;;;3.10;;
15655;SDS011;7928;43.614;1.456;2024-03-02T09:28:30;7.40;;;3.70;;
15655;SDS011;7928;43.614;1.456;2024-03-02T09:30:58;10.23;;;3.40;;
15655;SDS011;7928;43.614;1.456;2024-03-02T09:33:27;8.80;;;2.93;;
15655;SDS011;7928;43.614;1.456;2024-03-02T09:35:54;7.93;;;3.23;;
15655;SDS011;7928;43.614;1.456;2024-03-02T09:38:21;8.60;;;2.63;;
15655;SDS011;7928;43.614;1.456;2024-03-02T09:40:48;5.97;;;2.57;;
15655;SDS011;7928;43.614;1.456;2024-03-02T09:43:15;5.27;;;2.70;;
15655;SDS011;7928;43.614;1.456;2024-03-02T09:45:42;4.83;;;2.37;;
15655;SDS011;7928;43.614;1.456;2024-03-02T09:48:11;7.97;;;2.67;;
15655;SDS011;7928;43.614;1.456;2024-03-02T09:50:38;8.50;;;2.60;;
15655;SDS011;7928;43.614;1.456;2024-03-02T09:53:06;6.50;;;2.83;;
15655;SDS011;7928;43.614;1.456;2024-03-02T09:55:34;7.73;;;2.77;;
15655;SDS011;7928;43.614;1.456;2024-03-02T09:58:01;7.50;;;3.00;;
15655;SDS011;7928;43.614;1.456;2024-03-02T10:00:29;6.10;;;2.40;;
15655;SDS011;7928;43.614;1.456;2024-03-02T10:02:56;6.83;;;2.70;;
15655;SDS011;7928;43.614;1.456;2024-03-02T10:05:26;7.03;;;3.03;;
15655;SDS011;7928;43.614;1.456;2024-03-02T10:08:00;7.03;;;2.57;;
15655;SDS011;7928;43.614;1.456;2024-03-02T10:10:34;6.40;;;2.43;;
15655;SDS011;7928;43.614;1.456;2024-03-02T10:13:05;7.63;;;2.37;;
15655;SDS011;7928;43.614;1.456;2024-03-02T10:15:34;5.27;;;2.40;;
15655;SDS011;7928;43.614;1.456;2024-03-02T10:18:02;7.67;;;2.80;;
15655;SDS011;7928;43.614;1.456;2024-03-02T10:20:31;10.70;;;2.60;;
15655;SDS011;7928;43.614;1.456;2024-03-02T10:23:09;6.37;;;3.10;;
15655;SDS011;7928;43.614;1.456;2024-03-02T10:25:37;8.27;;;2.83;;
15655;SDS011;7928;43.614;1.456;2024-03-02T10:28:04;5.40;;;2.57;;
15655;SDS011;7928;43.614;1.456;2024-03-02T10:30:32;5.13;;;2.47;;
15655;SDS011;7928;43.614;1.456;2024-03-02T10:32:59;6.77;;;2.57;;
15655;SDS011;7928;43.614;1.456;2024-03-02T10:35:28;4.40;;;2.50;;
15655;SDS011;7928;43.614;1.456;2024-03-02T10:37:57;5.53;;;2.57;;
15655;SDS011;7928;43.614;1.456;2024-03-02T10:40:26;6.00;;;3.20;;
15655;SDS011;7928;43.614;1.456;2024-03-02T10:42:53;4.97;;;2.20;;
15655;SDS011;7928;43.614;1.456;2024-03-02T10:45:20;7.50;;;2.70;;
15655;SDS011;7928;43.614;1.456;2024-03-02T10:47:48;7.23;;;2.23;;
15655;SDS011;7928;43.614;1.456;2024-03-02T10:50:16;6.23;;;2.63;;
15655;SDS011;7928;43.614;1.456;2024-03-02T10:52:44;7.80;;;3.10;;
15655;SDS011;7928;43.614;1.456;2024-03-02T10:55:13;5.83;;;2.40;;
15655;SDS011;7928;43.614;1.456;2024-03-02T10:57:45;13.33;;;2.50;;
15655;SDS011;7928;43.614;1.456;2024-03-02T11:00:18;4.43;;;2.33;;
15655;SDS011;7928;43.614;1.456;2024-03-02T11:02:50;6.67;;;2.93;;
15655;SDS011;7928;43.614;1.456;2024-03-02T11:05:22;8.23;;;2.83;;
15655;SDS011;7928;43.614;1.456;2024-03-02T11:07:53;4.07;;;2.53;;
15655;SDS011;7928;43.614;1.456;2024-03-02T11:10:27;6.03;;;3.00;;
15655;SDS011;7928;43.614;1.456;2024-03-02T11:13:00;5.07;;;2.17;;
15655;SDS011;7928;43.614;1.456;2024-03-02T11:15:31;5.70;;;2.50;;
15655;SDS011;7928;43.614;1.456;2024-03-02T11:18:00;5.93;;;2.30;;
15655;SDS011;7928;43.614;1.456;2024-03-02T11:20:28;9.30;;;2.83;;
15655;SDS011;7928;43.614;1.456;2024-03-02T11:22:55;12.37;;;2.80;;
15655;SDS011;7928;43.614;1.456;2024-03-02T11:25:23;5.23;;;2.27;;
15655;SDS011;7928;43.614;1.456;2024-03-02T11:28:02;7.13;;;2.40;;
15655;SDS011;7928;43.614;1.456;2024-03-02T11:30:48;5.17;;;2.30;;
15655;SDS011;7928;43.614;1.456;2024-03-02T11:33:22;6.23;;;2.67;;
15655;SDS011;7928;43.614;1.456;2024-03-02T11:35:52;5.90;;;2.77;;
15655;SDS011;7928;43.614;1.456;2024-03-02T11:38:20;5.67;;;2.40;;
15655;SDS011;7928;43.614;1.456;2024-03-02T11:40:47;9.20;;;2.57;;
15655;SDS011;7928;43.614;1.456;2024-03-02T11:43:15;4.90;;;2.30;;
15655;SDS011;7928;43.614;1.456;2024-03-02T11:45:42;8.13;;;2.40;;
15655;SDS011;7928;43.614;1.456;2024-03-02T11:48:11;8.83;;;2.80;;
15655;SDS011;7928;43.614;1.456;2024-03-02T11:50:40;6.23;;;2.60;;
15655;SDS011;7928;43.614;1.456;2024-03-02T11:53:09;9.33;;;2.30;;
15655;SDS011;7928;43.614;1.456;2024-03-02T11:55:39;7.80;;;2.53;;
15655;SDS011;7928;43.614;1.456;2024-03-02T11:58:09;6.43;;;2.10;;
15655;SDS011;7928;43.614;1.456;2024-03-02T12:00:37;7.03;;;2.50;;
15655;SDS011;7928;43.614;1.456;2024-03-02T12:03:04;6.60;;;1.90;;
15655;SDS011;7928;43.614;1.456;2024-03-02T12:05:33;5.47;;;2.33;;
15655;SDS011;7928;43.614;1.456;2024-03-02T12:08:02;4.70;;;2.20;;
15655;SDS011;7928;43.614;1.456;2024-03-02T12:10:31;8.80;;;3.07;;
15655;SDS011;7928;43.614;1.456;2024-03-02T12:12:59;7.57;;;2.00;;
15655;SDS011;7928;43.614;1.456;2024-03-02T12:15:26;6.57;;;2.43;;
15655;SDS011;7928;43.614;1.456;2024-03-02T12:17:56;6.30;;;2.33;;
15655;SDS011;7928;43.614;1.456;2024-03-02T12:20:24;6.10;;;2.20;;
15655;SDS011;7928;43.614;1.456;2024-03-02T12:22:54;5.10;;;2.33;;
15655;SDS011;7928;43.614;1.456;2024-03-02T12:25:22;7.13;;;2.57;;
15655;SDS011;7928;43.614;1.456;2024-03-02T12:27:51;5.53;;;2.00;;
15655;SDS011;7928;43.614;1.456;2024-03-02T12:30:20;5.97;;;2.23;;
15655;SDS011;7928;43.614;1.456;2024-03-02T12:32:47;5.43;;;1.80;;
15655;SDS011;7928;43.614;1.456;2024-03-02T12:35:17;6.53;;;2.17;;
15655;SDS011;7928;43.614;1.456;2024-03-02T12:37:45;6.07;;;2.13;;
15655;SDS011;7928;43.614;1.456;2024-03-02T12:40:12;11.27;;;1.97;;
15655;SDS011;7928;43.614;1.456;2024-03-02T12:42:42;4.83;;;1.90;;
15655;SDS011;7928;43.614;1.456;2024-03-02T12:45:10;7.93;;;2.37;;
15655;SDS011;7928;43.614;1.456;2024-03-02T12:47:37;6.23;;;2.27;;
15655;SDS011;7928;43.614;1.456;2024-03-02T12:50:06;5.43;;;2.20;;
15655;SDS011;7928;43.614;1.456;2024-03-02T12:52:34;4.77;;;1.90;;
15655;SDS011;7928;43.614;1.456;2024-03-02T12:55:03;6.10;;;2.27;;
15655;SDS011;7928;43.614;1.456;2024-03-02T12:57:32;7.53;;;2.47;;
15655;SDS011;7928;43.614;1.456;2024-03-02T12:59:59;7.30;;;2.30;;
15655;SDS011;7928;43.614;1.456;2024-03-02T13:02:30;6.77;;;2.10;;
15655;SDS011;7928;43.614;1.456;2024-03-02T13:04:57;5.73;;;2.17;;
15655;SDS011;7928;43.614;1.456;2024-03-02T13:07:25;6.20;;;2.07;;
15655;SDS011;7928;43.614;1.456;2024-03-02T13:09:54;7.17;;;2.30;;
15655;SDS011;7928;43.614;1.456;2024-03-02T13:12:22;5.47;;;2.50;;
15655;SDS011;7928;43.614;1.456;2024-03-02T13:14:51;7.00;;;2.00;;
15655;SDS011;7928;43.614;1.456;2024-03-02T13:17:19;6.77;;;2.00;;
15655;SDS011;7928;43.614;1.456;2024-03-02T13:19:52;3.63;;;1.70;;
15655;SDS011;7928;43.614;1.456;2024-03-02T13:22:20;6.50;;;2.10;;
15655;SDS011;7928;43.614;1.456;2024-03-02T13:24:47;6.90;;;2.10;;
15655;SDS011;7928;43.614;1.456;2024-03-02T13:27:16;1.97;;;1.70;;
15655;SDS011;7928;43.614;1.456;2024-03-02T13:29:44;4.83;;;1.90;;
15655;SDS011;7928;43.614;1.456;2024-03-02T13:32:12;10.37;;;1.60;;
15655;SDS011;7928;43.614;1.456;2024-03-02T13:34:40;6.43;;;1.90;;
15655;SDS011;7928;43.614;1.456;2024-03-02T13:37:07;5.30;;;1.80;;
15655;SDS011;7928;43.614;1.456;2024-03-02T13:39:34;5.50;;;2.00;;
15655;SDS011;7928;43.614;1.456;2024-03-02T13:42:06;4.10;;;1.87;;
15655;SDS011;7928;43.614;1.456;2024-03-02T13:44:35;6.70;;;2.40;;
15655;SDS011;7928;43.614;1.456;2024-03-02T13:47:02;7.00;;;2.53;;
15655;SDS011;7928;43.614;1.456;2024-03-02T13:49:30;3.63;;;1.77;;
15655;SDS011;7928;43.614;1.456;2024-03-02T13:52:01;5.30;;;2.13;;
15655;SDS011;7928;43.614;1.456;2024-03-02T13:54:36;4.80;;;1.90;;
15655;SDS011;7928;43.614;1.456;2024-03-02T13:57:04;6.57;;;2.13;;
15655;SDS011;7928;43.614;1.456;2024-03-02T13:59:31;4.30;;;2.10;;
15655;SDS011;7928;43.614;1.456;2024-03-02T14:02:00;5.63;;;1.87;;
15655;SDS011;7928;43.614;1.456;2024-03-02T14:04:29;5.57;;;2.20;;
15655;SDS011;7928;43.614;1.456;2024-03-02T14:06:56;7.07;;;2.00;;
15655;SDS011;7928;43.614;1.456;2024-03-02T14:09:23;5.67;;;2.10;;
15655;SDS011;7928;43.614;1.456;2024-03-02T14:11:51;3.80;;;2.20;;
15655;SDS011;7928;43.614;1.456;2024-03-02T14:14:18;7.40;;;2.30;;
15655;SDS011;7928;43.614;1.456;2024-03-02T14:16:45;5.90;;;2.03;;
15655;SDS011;7928;43.614;1.456;2024-03-02T14:19:13;4.77;;;2.07;;
15655;SDS011;7928;43.614;1.456;2024-03-02T14:21:40;5.70;;;1.73;;
15655;SDS011;7928;43.614;1.456;2024-03-02T14:24:07;5.43;;;2.03;;
15655;SDS011;7928;43.614;1.456;2024-03-02T14:26:35;5.43;;;2.13;;
15655;SDS011;7928;43.614;1.456;2024-03-02T14:29:02;6.17;;;2.00;;
15655;SDS011;7928;43.614;1.456;2024-03-02T14:31:29;5.87;;;2.00;;
15655;SDS011;7928;43.614;1.456;2024-03-02T14:33:57;5.70;;;1.70;;
15655;SDS011;7928;43.614;1.456;2024-03-02T14:36:26;6.37;;;2.30;;
15655;SDS011;7928;43.614;1.456;2024-03-02T14:38:53;4.47;;;1.87;;
15655;SDS011;7928;43.614;1.456;2024-03-02T14:41:20;7.93;;;2.17;;
15655;SDS011;7928;43.614;1.456;2024-03-02T14:43:49;5.00;;;1.80;;
15655;SDS011;7928;43.614;1.456;2024-03-02T14:46:16;8.10;;;2.30;;
15655;SDS011;7928;43.614;1.456;2024-03-02T14:48:44;5.23;;;2.13;;
15655;SDS011;7928;43.614;1.456;2024-03-02T14:51:12;4.27;;;2.20;;
15655;SDS011;7928;43.614;1.456;2024-03-02T14:53:41;4.73;;;1.90;;
15655;SDS011;7928;43.614;1.456;2024-03-02T14:56:09;7.83;;;2.33;;
15655;SDS011;7928;43.614;1.456;2024-03-02T14:58:38;2.90;;;1.57;;
15655;SDS011;7928;43.614;1.456;2024-03-02T15:01:05;3.33;;;1.77;;
15655;SDS011;7928;43.614;1.456;2024-03-02T15:03:33;5.73;;;1.50;;
15655;SDS011;7928;43.614;1.456;2024-03-02T15:06:01;5.53;;;2.33;;